Time;durP1;ratioP1;P1;durP2;ratioP2;P2;SDS_P1;SDS_P2;PMS_P1;PMS_P2;Temp;Humidity;BMP_temperature;BMP_pressure;BME280_temperature;BME280_humidity;BME280_pressure;Samples;Min_cycle;Max_cycle;Signal;HPM_P1;HPM_P2
2021/12/28 00:00:34;;;;;;;3.10;1.67;;;7.70;99.90;;;7.83;72.59;96184.19;5012347;28;20044;-50
2021/12/28 00:03:01;;;;;;;3.23;1.90;;;7.70;99.90;;;7.81;72.93;96189.69;5011958;28;20046;-48
2021/12/28 00:05:30;;;;;;;5.87;1.63;;;7.70;99.90;;;7.79;72.77;96174.97;5015614;28;20418;-46
2021/12/28 00:07:57;;;;;;;4.60;2.87;;;7.60;99.90;;;7.77;72.44;96177.78;5018171;28;20049;-47
2021/12/28 00:10:25;;;;;;;4.43;1.70;;;7.60;99.90;;;7.77;72.79;96177.78;5016219;28;20263;-49
2021/12/28 00:12:55;;;;;;;3.07;2.00;;;7.60;99.90;;;7.79;72.89;96172.31;5018008;28;20053;-50
2021/12/28 00:18:00;;;;;;;5.90;1.77;;;7.60;99.90;;;7.79;72.85;96173.16;5016309;28;20054;-46
2021/12/28 00:20:42;;;;;;;2.43;1.57;;;7.60;99.90;;;7.78;72.81;96168.84;5009721;28;20451;-45
2021/12/28 00:23:20;;;;;;;5.00;2.13;;;7.60;99.90;;;7.79;72.90;96169.66;5009239;28;20083;-47
2021/12/28 00:25:52;;;;;;;3.97;1.63;;;7.60;99.90;;;7.81;72.81;96172.94;5007549;28;20058;-48
2021/12/28 00:28:21;;;;;;;7.30;2.97;;;7.60;99.90;;;7.81;72.99;96167.66;5008774;28;20057;-47
2021/12/28 00:30:51;;;;;;;4.63;1.90;;;7.60;99.90;;;7.81;72.76;96160.56;5010799;28;20060;-47
2021/12/28 00:33:22;;;;;;;6.47;1.87;;;7.60;99.90;;;7.81;72.81;96162.34;5009394;28;20483;-46
2021/12/28 00:35:50;;;;;;;4.57;2.10;;;7.70;99.90;;;7.80;72.94;96155.44;5008188;28;20053;-46
2021/12/28 00:38:23;;;;;;;4.23;1.60;;;7.70;99.90;;;7.80;72.83;96150.94;5008546;28;20316;-48
2021/12/28 00:40:57;;;;;;;6.00;2.03;;;7.70;99.90;;;7.80;72.74;96142.19;5007129;28;20557;-46
2021/12/28 00:43:29;;;;;;;3.30;1.53;;;7.70;99.90;;;7.79;72.77;96145.81;5007392;28;20271;-48
2021/12/28 00:45:56;;;;;;;3.77;1.90;;;7.70;99.90;;;7.79;72.87;96156.41;5008467;28;20340;-46
2021/12/28 00:48:25;;;;;;;5.10;2.23;;;7.70;99.90;;;7.79;72.68;96144.00;5007954;28;20058;-45
2021/12/28 00:50:54;;;;;;;4.07;1.53;;;7.70;99.90;;;7.79;72.99;96153.75;5008131;28;20068;-49
2021/12/28 00:53:21;;;;;;;5.30;1.80;;;7.60;99.90;;;7.75;72.96;96139.25;5006370;28;20046;-46
2021/12/28 00:55:50;;;;;;;4.97;2.67;;;7.60;99.90;;;7.77;72.64;96142.53;5007126;28;20084;-46
2021/12/28 00:58:18;;;;;;;5.00;1.63;;;7.60;99.90;;;7.74;72.64;96135.78;5006319;28;20378;-46
2021/12/28 01:00:46;;;;;;;7.37;2.10;;;7.60;99.90;;;7.75;72.74;96132.09;5009030;28;20045;-49
2021/12/28 01:03:16;;;;;;;7.30;2.37;;;7.60;99.90;;;7.73;72.73;96134.13;5008085;28;20053;-47
2021/12/28 01:05:45;;;;;;;5.03;1.87;;;7.60;99.90;;;7.72;72.97;96140.44;5008515;28;20077;-47
2021/12/28 01:08:14;;;;;;;9.53;2.00;;;7.60;99.90;;;7.72;73.21;96134.31;5009728;28;20053;-46
2021/12/28 01:10:51;;;;;;;6.77;2.40;;;7.60;99.90;;;7.68;73.12;96134.66;5009428;28;20044;-45
2021/12/28 01:13:21;;;;;;;6.10;1.70;;;7.60;99.90;;;7.71;73.01;96128.16;5007686;28;20041;-45
2021/12/28 01:15:51;;;;;;;9.63;2.40;;;7.60;99.90;;;7.72;73.12;96126.38;5007465;28;20045;-49
2021/12/28 01:18:22;;;;;;;7.70;2.10;;;7.60;99.90;;;7.74;73.19;96127.81;5008786;28;20279;-45
2021/12/28 01:20:51;;;;;;;4.27;1.60;;;7.70;99.90;;;7.76;72.97;96123.16;5007930;28;20058;-45
2021/12/28 01:23:19;;;;;;;5.73;2.20;;;7.70;99.90;;;7.79;73.03;96124.63;5006533;28;20048;-45
2021/12/28 01:25:47;;;;;;;4.77;2.00;;;7.70;99.90;;;7.80;72.83;96137.69;5007551;28;20045;-46
2021/12/28 01:28:15;;;;;;;17.80;3.23;;;7.70;99.90;;;7.82;72.83;96119.78;5007610;28;20042;-45
2021/12/28 01:30:45;;;;;;;5.23;1.30;;;7.70;99.90;;;7.83;72.81;96115.31;5006696;28;20054;-46
2021/12/28 01:33:13;;;;;;;6.50;2.10;;;7.80;99.90;;;7.81;72.96;96104.91;5005948;28;20053;-45
2021/12/28 01:35:40;;;;;;;5.50;1.70;;;7.80;99.90;;;7.83;72.88;96086.16;5006580;28;20062;-44
2021/12/28 01:38:09;;;;;;;5.57;1.70;;;7.80;99.90;;;7.86;72.80;96097.22;5007121;28;20057;-45
2021/12/28 01:40:41;;;;;;;7.50;3.33;;;7.90;99.90;;;7.90;72.83;96089.75;5007449;28;20050;-45
2021/12/28 01:43:21;;;;;;;5.93;2.00;;;7.80;99.90;;;7.91;72.71;96088.75;5008302;28;20045;-46
2021/12/28 01:45:55;;;;;;;15.70;3.33;;;7.90;99.90;;;7.95;72.87;96091.81;5008065;28;20363;-45
2021/12/28 01:48:28;;;;;;;5.50;2.38;;;7.90;99.90;;;7.97;72.70;96085.38;5007452;28;20050;-44
2021/12/28 01:51:03;;;;;;;7.63;1.83;;;7.90;99.90;;;7.98;72.60;96086.19;5008394;28;20053;-49
2021/12/28 01:53:31;;;;;;;10.93;1.93;;;7.90;99.90;;;7.95;72.51;96075.94;5007807;28;20057;-45
2021/12/28 01:56:07;;;;;;;8.00;2.70;;;7.90;99.90;;;7.93;72.60;96070.84;5005425;28;20045;-44
2021/12/28 01:58:35;;;;;;;6.03;1.87;;;7.90;99.90;;;7.97;72.63;96068.63;5008173;28;20053;-46
2021/12/28 02:01:05;;;;;;;6.13;1.80;;;7.90;99.90;;;7.95;72.59;96074.13;5007503;28;20050;-44
2021/12/28 02:03:36;;;;;;;7.77;2.00;;;7.90;99.90;;;7.99;72.64;96063.97;5006847;28;20068;-46
2021/12/28 02:06:05;;;;;;;4.50;1.77;;;8.00;99.90;;;8.01;72.54;96062.78;5006081;28;20057;-40
2021/12/28 02:08:34;;;;;;;8.90;2.90;;;8.00;99.90;;;8.02;72.41;96048.50;5007128;28;20042;-40
2021/12/28 02:11:03;;;;;;;7.17;2.13;;;8.00;99.90;;;8.03;72.58;96059.97;5007474;28;20060;-40
2021/12/28 02:13:31;;;;;;;5.67;2.17;;;8.00;99.90;;;8.04;72.49;96051.78;5006348;28;20045;-40
2021/12/28 02:16:00;;;;;;;4.63;1.77;;;8.00;99.90;;;8.07;72.58;96058.56;5005905;28;20048;-40
2021/12/28 02:18:31;;;;;;;5.37;2.00;;;8.00;99.90;;;8.11;72.32;96045.78;5007893;28;20064;-40
2021/12/28 02:21:04;;;;;;;7.60;2.53;;;8.00;99.90;;;8.09;72.34;96038.81;5007976;28;20052;-40
2021/12/28 02:23:32;;;;;;;10.07;2.03;;;8.00;99.90;;;8.08;72.40;96041.66;5006391;28;20049;-40
2021/12/28 02:26:00;;;;;;;9.63;2.50;;;8.00;99.90;;;8.08;72.22;96025.75;5007497;28;20054;-40
2021/12/28 02:28:28;;;;;;;5.73;1.50;;;8.00;99.90;;;8.11;72.24;96029.88;5008417;28;20238;-40
2021/12/28 02:30:58;;;;;;;5.63;1.70;;;8.10;99.90;;;8.11;72.05;96029.88;5008274;28;20222;-40
2021/12/28 02:33:27;;;;;;;6.77;1.70;;;8.10;99.90;;;8.06;72.28;96022.47;5006820;28;20057;-40
2021/12/28 02:35:59;;;;;;;8.73;2.13;;;8.00;99.90;;;8.03;72.10;96025.50;5006110;28;20327;-40
2021/12/28 02:38:29;;;;;;;6.43;1.70;;;8.00;99.90;;;8.04;72.23;96011.22;5005983;28;20239;-40
2021/12/28 02:40:57;;;;;;;10.17;2.10;;;8.00;99.90;;;8.05;72.26;96012.88;5006846;28;20046;-40
2021/12/28 02:43:25;;;;;;;6.93;2.90;;;8.00;99.90;;;8.07;72.12;96014.34;5007116;28;20052;-40
2021/12/28 02:46:02;;;;;;;9.93;2.63;;;8.00;99.90;;;8.07;72.10;96014.34;5005483;28;20363;-40
2021/12/28 02:48:32;;;;;;;5.83;1.63;;;8.00;99.90;;;8.06;71.75;96007.41;5007164;28;20053;-41
2021/12/28 02:51:08;;;;;;;5.33;1.63;;;8.00;99.90;;;8.07;71.87;96005.56;5012309;28;20061;-40
2021/12/28 02:53:36;;;;;;;11.00;2.57;;;8.00;99.90;;;8.03;71.95;95993.69;5010474;28;20053;-40
2021/12/28 02:56:06;;;;;;;8.63;1.90;;;8.00;99.90;;;8.04;71.70;95990.03;5009219;28;20248;-40
2021/12/28 02:58:50;;;;;;;6.33;1.93;;;8.00;99.90;;;8.06;71.42;95988.84;5010242;28;20064;-41
2021/12/28 03:01:26;;;;;;;6.40;2.10;;;8.00;99.90;;;8.02;71.76;95986.75;5012356;28;20062;-41
2021/12/28 03:04:04;;;;;;;6.07;2.27;;;8.00;99.90;;;8.07;71.85;96002.91;5010907;28;20064;-40
2021/12/28 03:06:34;;;;;;;4.40;2.40;;;8.00;99.90;;;8.08;71.96;95996.59;5011649;28;20434;-44
2021/12/28 03:09:06;;;;;;;6.47;2.37;;;8.00;99.90;;;8.12;71.45;96000.50;5010534;28;20057;-48
2021/12/28 03:11:34;;;;;;;14.17;2.60;;;8.10;99.90;;;8.13;71.74;95988.09;5010290;28;20053;-44
2021/12/28 03:14:03;;;;;;;5.73;1.50;;;8.10;99.90;;;8.08;71.58;95992.13;5008697;28;20063;-46
2021/12/28 03:16:32;;;;;;;7.80;2.37;;;8.10;99.90;;;8.11;71.11;95988.28;5009379;28;20046;-47
2021/12/28 03:19:00;;;;;;;5.63;2.00;;;8.20;99.90;;;8.14;71.71;95977.28;5010074;28;20275;-46
2021/12/28 03:21:30;;;;;;;7.43;2.63;;;8.20;99.90;;;8.08;71.50;95976.25;5011056;28;20050;-46
2021/12/28 03:23:58;;;;;;;6.60;1.70;;;8.20;99.90;;;8.15;71.49;95976.31;5010061;28;20080;-46
2021/12/28 03:26:26;;;;;;;4.43;1.53;;;8.20;99.90;;;8.18;71.23;95968.00;5010382;28;20256;-44
2021/12/28 03:28:54;;;;;;;7.27;2.53;;;8.20;99.90;;;8.19;71.26;95963.50;5009353;28;20098;-45
2021/12/28 03:31:23;;;;;;;6.37;2.40;;;8.10;99.90;;;8.22;71.16;95965.75;5011015;28;20367;-44
2021/12/28 03:33:54;;;;;;;4.47;1.97;;;8.20;99.90;;;8.24;71.19;95969.06;5011616;28;20054;-40
2021/12/28 03:36:28;;;;;;;6.03;2.00;;;8.20;99.90;;;8.20;70.44;95954.53;5010093;28;20054;-40
2021/12/28 03:38:58;;;;;;;5.00;2.03;;;8.20;99.90;;;8.19;71.15;95948.41;5008151;28;20446;-40
2021/12/28 03:41:28;;;;;;;6.60;1.70;;;8.20;99.90;;;8.22;70.84;95947.19;5009034;28;20063;-40
2021/12/28 03:43:57;;;;;;;7.57;2.53;;;8.20;99.90;;;8.24;71.01;95946.03;5009855;28;20057;-40
2021/12/28 03:46:27;;;;;;;4.67;1.77;;;8.20;99.90;;;8.21;70.33;95938.44;5009920;28;20064;-40
2021/12/28 03:48:56;;;;;;;10.40;2.37;;;8.20;99.90;;;8.21;70.92;95933.13;4991778;28;20050;-40
2021/12/28 03:51:25;;;;;;;7.30;1.80;;;8.20;99.90;;;8.25;70.93;95930.94;5009697;28;20038;-40
2021/12/28 03:53:54;;;;;;;4.97;1.97;;;8.20;99.90;;;8.26;71.05;95921.97;5009098;28;20402;-40
2021/12/28 03:56:22;;;;;;;3.67;1.60;;;8.20;99.90;;;8.24;70.74;95931.97;5009124;28;20065;-40
2021/12/28 03:58:51;;;;;;;5.97;2.07;;;8.20;99.90;;;8.19;70.58;95923.72;5008682;28;20050;-40
2021/12/28 04:01:24;;;;;;;4.30;1.37;;;8.20;99.90;;;8.20;70.80;95920.91;5009233;28;20058;-40
2021/12/28 04:03:53;;;;;;;4.20;1.65;;;8.20;99.90;;;8.21;70.79;95924.38;5008933;28;20221;-40
2021/12/28 04:06:21;;;;;;;9.43;1.83;;;8.20;99.90;;;8.22;70.66;95926.84;5008394;28;20259;-40
2021/12/28 04:08:50;;;;;;;7.83;2.17;;;8.20;99.90;;;8.24;70.82;95932.75;5008480;28;20053;-40
2021/12/28 04:13:49;;;;;;;7.60;1.80;;;8.20;99.90;;;8.28;70.77;95931.38;5008934;28;20071;-40
2021/12/28 04:16:18;;;;;;;6.33;2.00;;;8.20;99.90;;;8.29;70.68;95921.59;5008290;28;20042;-40
2021/12/28 04:18:46;;;;;;;6.23;1.93;;;8.20;99.90;;;8.31;70.57;95924.06;5009282;28;20370;-40
2021/12/28 04:21:14;;;;;;;4.80;2.07;;;8.20;99.90;;;8.33;70.70;95922.84;5009226;28;20061;-40
2021/12/28 04:23:43;;;;;;;6.77;2.53;;;8.20;99.90;;;8.33;70.56;95919.38;5009182;28;20052;-40
2021/12/28 04:26:11;;;;;;;7.83;1.67;;;8.30;99.90;;;8.34;70.65;95924.50;5007849;28;20358;-40
2021/12/28 04:28:40;;;;;;;7.70;1.60;;;8.30;99.90;;;8.34;70.46;95923.69;5007323;28;20052;-40
2021/12/28 04:31:08;;;;;;;4.47;1.70;;;8.20;99.90;;;8.36;70.61;95919.03;5008371;28;20054;-40
2021/12/28 04:33:37;;;;;;;4.20;1.87;;;8.30;99.90;;;8.37;70.66;95913.50;5008408;28;20067;-40
2021/12/28 04:36:15;;;;;;;6.20;2.27;;;8.30;99.90;;;8.36;70.48;95914.53;5006516;28;20363;-40
2021/12/28 04:38:45;;;;;;;5.20;1.50;;;8.30;99.90;;;8.37;70.59;95915.34;5008556;28;20049;-40
2021/12/28 04:41:13;;;;;;;5.00;1.57;;;8.30;99.90;;;8.39;70.48;95910.66;5008683;28;20042;-40
2021/12/28 04:43:41;;;;;;;3.93;1.70;;;8.30;99.90;;;8.43;70.59;95909.31;5007739;28;20247;-40
2021/12/28 04:46:09;;;;;;;4.57;1.60;;;8.30;99.90;;;8.44;70.42;95901.16;5007960;28;20049;-40
2021/12/28 04:48:37;;;;;;;3.70;1.37;;;8.30;99.90;;;8.47;70.50;95902.59;5008849;28;20048;-40
2021/12/28 04:51:06;;;;;;;4.67;1.70;;;8.30;99.90;;;8.45;70.38;95905.47;5008939;28;20054;-41
2021/12/28 04:53:34;;;;;;;3.17;1.27;;;8.30;99.90;;;8.46;70.44;95896.50;5008598;28;20061;-40
2021/12/28 04:56:03;;;;;;;7.40;1.67;;;8.30;99.90;;;8.45;70.44;95904.63;5004940;28;20061;-41
2021/12/28 04:58:31;;;;;;;3.93;1.70;;;8.30;99.90;;;8.44;70.27;95903.81;5008913;28;20244;-40
2021/12/28 05:00:59;;;;;;;7.27;1.50;;;8.30;99.90;;;8.45;70.23;95891.38;5007262;28;20052;-40
2021/12/28 05:03:27;;;;;;;8.53;1.83;;;8.30;99.90;;;8.45;70.25;95886.91;5007341;28;20050;-40
2021/12/28 05:05:56;;;;;;;6.03;1.73;;;8.30;99.90;;;8.45;70.22;95878.09;5007882;28;20348;-40
2021/12/28 05:08:24;;;;;;;8.00;2.03;;;8.30;99.90;;;8.44;70.14;95884.44;5008901;28;20086;-40
2021/12/28 05:10:53;;;;;;;7.33;1.60;;;8.30;99.90;;;8.39;69.98;95881.50;5009333;28;20375;-41
2021/12/28 05:13:22;;;;;;;7.83;2.33;;;8.30;99.90;;;8.40;70.34;95873.34;5006363;28;20348;-40
2021/12/28 05:15:52;;;;;;;3.90;1.23;;;8.30;99.90;;;8.39;69.69;95877.00;5007718;28;20349;-40
2021/12/28 05:18:20;;;;;;;9.53;1.83;;;8.30;99.90;;;8.40;70.08;95868.06;5008298;28;20050;-40
2021/12/28 05:20:48;;;;;;;5.07;1.20;;;8.30;99.90;;;8.39;70.08;95873.53;5007905;28;20048;-40
2021/12/28 05:23:16;;;;;;;7.73;1.47;;;8.30;99.90;;;8.37;69.96;95873.72;5006562;28;20053;-40
2021/12/28 05:25:44;;;;;;;3.83;1.30;;;8.40;99.90;;;8.40;70.01;95865.41;5008099;28;20060;-40
2021/12/28 05:28:12;;;;;;;4.80;1.47;;;8.40;99.90;;;8.44;70.13;95864.03;5008540;28;20057;-40
2021/12/28 05:30:40;;;;;;;4.13;1.30;;;8.40;99.90;;;8.48;70.26;95867.13;5007423;28;20071;-40
2021/12/28 05:33:08;;;;;;;3.97;1.47;;;8.40;99.90;;;8.51;70.12;95865.91;5008158;28;20063;-40
2021/12/28 05:35:36;;;;;;;6.60;1.30;;;8.50;99.90;;;8.53;70.26;95869.19;5007355;28;20084;-40
2021/12/28 05:38:04;;;;;;;2.67;1.10;;;8.50;99.90;;;8.56;70.05;95860.88;5007497;28;20060;-40
2021/12/28 05:40:32;;;;;;;2.97;1.03;;;8.50;99.90;;;8.58;70.04;95858.84;5008907;28;20053;-40
2021/12/28 05:43:00;;;;;;;3.13;1.30;;;8.50;99.90;;;8.54;70.03;95853.09;5006680;28;20328;-40
2021/12/28 05:45:28;;;;;;;4.00;1.50;;;8.50;99.90;;;8.54;70.01;95858.41;5007534;28;20083;-40
2021/12/28 05:47:56;;;;;;;2.97;0.90;;;8.50;99.90;;;8.53;69.94;95851.47;5008199;28;20057;-40
2021/12/28 05:50:24;;;;;;;2.13;1.20;;;8.50;99.90;;;8.54;70.14;95850.44;5008608;28;20247;-40
2021/12/28 05:52:53;;;;;;;2.80;1.20;;;8.50;99.90;;;8.55;70.11;95846.78;5008251;28;20053;-40
2021/12/28 05:55:22;;;;;;;2.97;0.97;;;8.50;99.90;;;8.56;70.14;95835.16;5008204;28;20050;-40
2021/12/28 05:57:50;;;;;;;3.90;1.00;;;8.60;99.90;;;8.60;70.04;95852.31;5007296;28;20049;-40
2021/12/28 06:00:18;;;;;;;3.67;1.50;;;8.60;99.90;;;8.63;70.15;95845.84;5009056;28;20058;-40
2021/12/28 06:02:46;;;;;;;2.57;1.20;;;8.60;99.90;;;8.61;70.20;95853.97;5007524;28;20046;-40
2021/12/28 06:05:14;;;;;;;4.60;1.20;;;8.60;99.90;;;8.64;70.15;95848.28;5008057;28;20052;-39
2021/12/28 06:07:42;;;;;;;5.00;1.07;;;8.60;99.90;;;8.62;70.28;95850.28;5006016;28;20316;-40
2021/12/28 06:10:10;;;;;;;2.73;1.17;;;8.60;99.90;;;8.65;70.14;95851.75;5006670;28;20052;-40
2021/12/28 06:12:38;;;;;;;1.57;1.10;;;8.60;99.90;;;8.64;70.33;95844.81;5008265;28;20068;-40
2021/12/28 06:15:07;;;;;;;3.93;1.40;;;8.60;99.90;;;8.65;70.32;95834.00;5007865;28;20245;-40
2021/12/28 06:17:35;;;;;;;2.73;1.27;;;8.60;99.90;;;8.67;70.48;95841.78;5007323;28;20044;-41
2021/12/28 06:20:05;;;;;;;3.97;1.50;;;8.60;99.90;;;8.65;70.28;95834.00;5007526;28;20234;-41
2021/12/28 06:22:33;;;;;;;4.50;1.00;;;8.60;99.90;;;8.66;70.31;95840.13;5006414;28;20256;-41
2021/12/28 06:25:03;;;;;;;2.40;1.20;;;8.60;99.90;;;8.63;70.56;95833.38;5010327;28;20046;-40
2021/12/28 06:27:31;;;;;;;2.30;1.33;;;8.60;99.90;;;8.65;70.66;95825.25;5011992;28;20057;-41
2021/12/28 06:29:59;;;;;;;2.73;1.70;;;8.60;99.90;;;8.56;70.21;95821.91;5011606;28;20052;-40
2021/12/28 06:32:26;;;;;;;1.07;0.90;;;8.60;99.90;;;8.56;70.44;95821.91;5010682;28;20057;-40
2021/12/28 06:34:54;;;;;;;3.07;1.30;;;8.60;99.90;;;8.54;70.56;95818.63;5011082;28;20064;-40
2021/12/28 06:37:22;;;;;;;1.57;0.90;;;8.50;99.90;;;8.60;70.42;95822.34;5011315;28;20057;-40
2021/12/28 06:39:50;;;;;;;2.83;1.20;;;8.60;99.90;;;8.51;70.69;95805.75;5010745;28;20049;-40
2021/12/28 06:42:18;;;;;;;3.00;1.13;;;8.60;99.90;;;8.52;70.70;95807.38;5010034;28;20058;-41
2021/12/28 06:44:47;;;;;;;2.03;1.10;;;8.50;99.90;;;8.51;70.63;95799.63;5010201;28;20743;-41
2021/12/28 06:47:15;;;;;;;2.33;1.50;;;8.60;99.90;;;8.52;70.81;95806.56;5008100;28;20283;-41
2021/12/28 06:49:44;;;;;;;3.50;1.43;;;8.50;99.90;;;8.48;70.71;95791.03;5011869;28;20064;-41
2021/12/28 06:52:13;;;;;;;2.97;1.17;;;8.50;99.90;;;8.45;70.72;95799.41;5010157;28;20061;-41
2021/12/28 06:54:41;;;;;;;2.77;1.70;;;8.40;99.90;;;8.43;70.53;95792.63;5008878;28;20046;-42
2021/12/28 06:57:11;;;;;;;2.90;1.20;;;8.40;99.90;;;8.44;70.90;95803.03;5009802;28;20069;-42
2021/12/28 06:59:45;;;;;;;2.50;1.40;;;8.40;99.90;;;8.40;70.92;95804.41;5010964;28;20247;-42
2021/12/28 07:02:14;;;;;;;;;;;8.40;99.90;;;8.33;70.79;95803.53;5009393;28;20058;-42
2021/12/28 07:04:44;;;;;;;1.77;1.20;;;8.30;99.90;;;8.34;71.07;95799.06;5009631;28;19925;-42
2021/12/28 07:07:12;;;;;;;1.73;1.10;;;8.30;99.90;;;8.32;71.06;95804.56;5010033;28;20075;-43
2021/12/28 07:09:40;;;;;;;2.33;1.00;;;8.30;99.90;;;8.29;71.04;95803.09;5011618;28;20056;-42
2021/12/28 07:12:09;;;;;;;2.17;1.20;;;8.20;99.90;;;8.26;71.12;95802.69;5010111;28;20367;-41
2021/12/28 07:14:37;;;;;;;1.80;1.20;;;8.20;99.90;;;8.23;71.15;95798.56;5009981;28;20340;-41
2021/12/28 07:17:05;;;;;;;3.73;1.50;;;8.20;99.90;;;8.22;71.38;95793.44;5009761;28;20445;-41
2021/12/28 07:19:33;;;;;;;1.63;1.10;;;8.20;99.90;;;8.21;71.56;95797.94;5010149;28;20046;-41
2021/12/28 07:22:01;;;;;;;2.13;1.10;;;8.30;99.90;;;8.24;71.52;95786.97;5007745;28;20075;-41
2021/12/28 07:24:30;;;;;;;1.57;0.93;;;8.30;99.90;;;8.27;71.43;95791.84;5010603;28;20050;-41
2021/12/28 07:26:58;;;;;;;2.90;1.20;;;8.30;99.90;;;8.26;71.59;95786.78;5009821;28;20053;-42
2021/12/28 07:29:26;;;;;;;2.70;1.50;;;8.30;99.90;;;8.28;71.54;95787.41;5010996;28;20252;-42
2021/12/28 07:31:54;;;;;;;1.50;1.03;;;8.30;99.90;;;8.28;71.60;95784.75;5009907;28;20066;-42
2021/12/28 07:34:24;;;;;;;3.30;1.37;;;8.30;99.90;;;8.32;71.52;95790.47;5008736;28;20255;-41
2021/12/28 07:36:52;;;;;;;1.60;1.33;;;8.30;99.90;;;8.36;71.57;95797.03;5006950;28;20351;-41
2021/12/28 07:39:20;;;;;;;3.87;2.07;;;8.40;99.90;;;8.36;71.53;95802.34;5008642;28;20336;-41
2021/12/28 07:41:48;;;;;;;2.33;1.53;;;8.40;99.90;;;8.38;71.71;95787.06;5009264;28;20042;-41
2021/12/28 07:44:17;;;;;;;2.67;1.57;;;8.40;99.90;;;8.39;71.87;95791.34;5007811;28;20328;-42
2021/12/28 07:46:45;;;;;;;0.97;0.90;;;8.40;99.90;;;8.43;71.74;95798.78;5009427;28;20049;-41
2021/12/28 07:49:13;;;;;;;1.73;1.20;;;8.40;99.90;;;8.48;71.95;95787.56;5009813;28;20073;-41
2021/12/28 07:51:41;;;;;;;1.43;1.33;;;8.50;99.90;;;8.47;71.60;95800.03;5008733;28;20247;-41
2021/12/28 07:54:09;;;;;;;1.13;0.90;;;8.60;99.90;;;8.53;71.59;95798.44;5009122;28;20054;-41
2021/12/28 07:56:37;;;;;;;1.60;1.03;;;8.60;99.90;;;8.55;71.59;95807.00;5006270;28;20063;-41
2021/12/28 07:59:05;;;;;;;2.30;1.10;;;8.60;99.90;;;8.56;71.81;95802.50;5009588;28;20054;-41
2021/12/28 08:01:34;;;;;;;1.50;1.10;;;8.60;99.90;;;8.56;71.60;95805.97;5008620;28;20049;-41
2021/12/28 08:04:03;;;;;;;1.50;1.00;;;8.60;99.90;;;8.59;71.68;95804.78;5009126;28;20217;-41
2021/12/28 08:06:31;;;;;;;1.63;1.07;;;8.70;99.90;;;8.63;71.82;95806.03;5007915;28;20060;-41
2021/12/28 08:08:59;;;;;;;1.17;1.07;;;8.70;99.90;;;8.69;71.72;95812.41;5007925;28;20062;-41
2021/12/28 08:11:27;;;;;;;1.50;0.80;;;8.70;99.90;;;8.67;71.83;95808.09;5008085;28;20046;-41
2021/12/28 08:13:55;;;;;;;1.03;0.73;;;8.70;99.90;;;8.72;71.72;95814.66;5008807;28;20050;-42
2021/12/28 08:16:24;;;;;;;1.47;1.20;;;8.80;99.90;;;8.76;71.60;95821.22;5008239;28;20042;-42
2021/12/28 08:18:52;;;;;;;1.37;1.00;;;8.80;99.90;;;8.75;71.74;95809.78;5007638;28;20328;-41
2021/12/28 08:21:40;;;;;;;0.93;0.70;;;8.80;99.90;;;8.75;71.80;95819.59;5007950;28;20057;-41
2021/12/28 08:24:08;;;;;;;1.20;0.80;;;8.80;99.90;;;8.76;71.79;95811.44;5010949;28;20062;-41
2021/12/28 08:26:36;;;;;;;2.03;0.90;;;8.80;99.90;;;8.76;71.99;95815.91;5018881;28;20038;-41
2021/12/28 08:29:04;;;;;;;1.20;0.70;;;8.80;99.90;;;8.80;71.92;95827.75;5034418;28;20076;-42
2021/12/28 08:31:34;;;;;;;0.80;0.60;;;8.80;99.90;;;8.77;71.90;95828.16;5019616;28;20363;-42
2021/12/28 08:34:03;;;;;;;0.83;0.73;;;8.80;99.90;;;8.78;72.12;95825.31;5018311;28;20059;-41
2021/12/28 08:36:31;;;;;;;1.10;0.80;;;8.80;99.90;;;8.81;72.14;95824.13;5018866;28;20050;-41
2021/12/28 08:38:59;;;;;;;2.87;1.10;;;8.90;99.90;;;8.82;72.12;95828.38;5017396;28;20045;-41
2021/12/28 08:41:28;;;;;;;3.07;1.90;;;8.90;99.90;;;8.79;72.37;95834.09;5019782;28;20042;-41
2021/12/28 08:43:57;;;;;;;1.90;1.50;;;8.90;99.90;;;8.83;72.23;95825.53;5019374;28;21290;-41
2021/12/28 08:46:24;;;;;;;1.37;1.00;;;8.90;99.90;;;8.83;72.44;95824.72;5017372;28;20049;-41
2021/12/28 08:48:52;;;;;;;2.13;1.13;;;8.90;99.90;;;8.82;72.58;95837.19;5019208;28;20268;-41
2021/12/28 08:51:20;;;;;;;1.80;1.30;;;8.90;99.90;;;8.81;72.66;95829.41;5019054;28;20375;-41
2021/12/28 08:53:48;;;;;;;1.30;0.93;;;8.90;99.90;;;8.83;72.70;95830.03;5015755;28;20064;-41
2021/12/28 08:56:16;;;;;;;3.73;1.20;;;8.90;99.90;;;8.84;72.64;95834.31;5015942;28;20069;-42
2021/12/28 08:58:44;;;;;;;1.23;1.00;;;8.90;99.90;;;8.85;72.51;95833.31;5016674;28;20046;-41
2021/12/28 09:01:12;;;;;;;1.53;0.90;;;8.90;99.90;;;8.88;72.55;95848.88;5016423;28;20056;-41
2021/12/28 09:03:40;;;;;;;1.30;0.80;;;9.00;99.90;;;8.91;72.54;95848.47;5017265;28;20233;-41
2021/12/28 09:06:09;;;;;;;0.77;0.60;;;9.00;99.90;;;8.92;72.56;95842.16;5015563;28;20053;-41
2021/12/28 09:08:37;;;;;;;2.13;0.53;;;8.90;99.90;;;8.94;72.41;95847.28;5018472;28;20084;-42
2021/12/28 09:11:05;;;;;;;1.00;0.60;;;9.00;99.90;;;8.96;72.83;95845.25;5015583;28;20360;-41
2021/12/28 09:13:33;;;;;;;1.30;0.70;;;9.00;99.90;;;8.99;72.75;95852.78;5019514;28;20376;-42
2021/12/28 09:16:01;;;;;;;1.67;0.80;;;9.10;99.90;;;9.03;72.75;95851.38;5017548;28;20049;-47
2021/12/28 09:18:29;;;;;;;0.67;0.50;;;9.10;99.90;;;9.02;72.68;95855.06;5016313;28;20263;-47
2021/12/28 09:20:57;;;;;;;1.23;0.60;;;9.10;99.90;;;9.05;72.84;95866.13;5017426;28;20053;-48
2021/12/28 09:23:26;;;;;;;1.30;1.20;;;9.10;99.90;;;9.09;72.71;95858.56;5030663;28;20056;-46
2021/12/28 09:26:14;;;;;;;2.30;0.70;;;9.10;99.90;;;9.09;73.05;95863.88;5016584;28;20247;-47
2021/12/28 09:28:41;;;;;;;0.70;0.60;;;9.10;99.90;;;9.13;72.88;95853.69;5015418;28;20085;-47
2021/12/28 09:31:10;;;;;;;0.70;0.60;;;9.20;99.90;;;9.15;72.92;95862.28;5014409;28;20385;-47
2021/12/28 09:33:38;;;;;;;1.00;0.60;;;9.20;99.90;;;9.17;73.08;95862.91;5015824;28;20121;-46
2021/12/28 09:36:07;;;;;;;1.23;0.73;;;9.30;99.90;;;9.21;73.16;95869.47;5016865;28;20244;-46
2021/12/28 09:38:35;;;;;;;3.63;1.80;;;9.30;99.90;;;9.21;73.19;95874.78;5016670;28;20060;-49
2021/12/28 09:41:04;;;;;;;1.93;1.17;;;9.30;99.90;;;9.24;73.23;95877.84;5029226;28;20062;-48
2021/12/28 09:43:32;;;;;;;0.90;0.63;;;9.30;99.90;;;9.25;73.02;95871.53;5010499;28;20243;-46
2021/12/28 09:46:00;;;;;;;1.80;0.73;;;9.40;99.90;;;9.32;72.98;95879.53;5007790;28;20060;-48
2021/12/28 09:48:28;;;;;;;1.13;0.90;;;9.40;99.90;;;9.33;73.14;95875.88;5007682;28;20064;-47
2021/12/28 09:50:56;;;;;;;1.83;0.97;;;9.40;99.90;;;9.37;73.08;95885.06;5011180;28;20057;-48
2021/12/28 09:53:24;;;;;;;1.37;0.83;;;9.40;99.90;;;9.37;72.89;95879.75;5004889;28;20062;-47
2021/12/28 09:55:53;;;;;;;1.77;1.27;;;9.40;99.90;;;9.39;73.36;95883.03;5008587;28;20060;-47
2021/12/28 09:58:21;;;;;;;1.27;1.00;;;9.50;99.90;;;9.41;73.18;95894.28;5007913;28;20243;-46
2021/12/28 10:01:05;;;;;;;1.17;0.80;;;9.50;99.90;;;9.43;73.14;95884.28;5011696;28;20370;-46
2021/12/28 10:03:34;;;;;;;1.13;0.90;;;9.60;99.90;;;9.46;73.33;95894.53;5010425;28;20371;-46
2021/12/28 10:06:25;;;;;;;0.87;0.80;;;9.60;99.90;;;9.44;73.68;95885.94;5010919;28;20054;-50
2021/12/28 10:09:16;;;;;;;1.57;0.83;;;9.60;99.90;;;9.51;73.53;95895.78;5010655;28;20060;-49
2021/12/28 10:11:53;;;;;;;1.87;1.07;;;9.70;99.90;;;9.57;73.73;95900.28;5003769;28;20057;-46
2021/12/28 10:14:28;;;;;;;0.60;0.60;;;9.70;99.90;;;9.58;73.85;95900.09;5009373;28;20048;-46
2021/12/28 10:17:04;;;;;;;3.13;2.20;;;9.80;99.90;;;9.63;73.77;95908.31;5009654;28;20064;-46
2021/12/28 10:19:33;;;;;;;5.60;3.53;;;9.90;99.90;;;9.72;73.73;95900.16;5010728;28;20390;-49
2021/12/28 10:22:28;;;;;;;1.77;1.20;;;9.90;99.90;;;9.78;74.03;95905.50;5009541;28;20048;-47
2021/12/28 10:25:09;;;;;;;0.97;0.70;;;10.00;99.90;;;9.86;73.84;95909.81;5009537;28;20061;-45
2021/12/28 10:27:40;;;;;;;3.53;2.17;;;10.10;99.90;;;9.88;73.71;95901.66;5009151;28;20053;-48
2021/12/28 10:30:26;;;;;;;2.77;1.23;;;10.10;99.90;;;9.91;73.46;95911.91;5006918;28;20104;-47
2021/12/28 10:33:05;;;;;;;23.70;15.30;;;10.20;99.90;;;9.99;73.46;95904.53;5010863;28;20045;-42
2021/12/28 10:35:52;;;;;;;3.87;2.23;;;10.20;99.90;;;10.07;73.33;95903.53;5018339;28;20061;-42
2021/12/28 10:38:25;;;;;;;3.27;1.90;;;10.30;99.90;;;10.12;73.23;95900.28;5026350;28;20046;-42
2021/12/28 10:40:57;;;;;;;1.73;1.00;;;10.30;99.90;;;10.17;73.52;95903.97;5027168;28;20061;-42
2021/12/28 10:43:31;;;;;;;8.37;6.40;;;10.30;99.90;;;10.25;73.52;95890.50;5030964;28;20072;-42
2021/12/28 10:46:18;;;;;;;2.60;1.73;;;10.40;99.90;;;10.31;73.44;95901.38;5029069;28;20053;-41
2021/12/28 10:48:51;;;;;;;16.27;10.07;;;10.50;99.90;;;10.38;73.50;95895.03;5015652;28;20062;-42